createdAt,value
2023-04-26T00:01:45.932Z,102138.44
2023-04-26T00:04:12.705Z,102145.44
2023-04-26T00:06:39.344Z,102149.03
2023-04-26T00:09:05.735Z,102147.31
2023-04-26T00:11:32.211Z,102151.78
2023-04-26T00:13:59.196Z,102149.19
2023-04-26T00:16:25.728Z,102155.28
2023-04-26T00:18:52.513Z,102145.81
2023-04-26T00:21:19.214Z,102148.31
2023-04-26T00:23:45.604Z,102148.34
2023-04-26T00:26:11.931Z,102148.41
2023-04-26T00:28:38.277Z,102144.94
2023-04-26T00:31:04.734Z,102142.34
2023-04-26T00:33:31.289Z,102134.59
2023-04-26T00:35:57.663Z,102139.84
2023-04-26T00:38:24.231Z,102138.25
2023-04-26T00:40:50.663Z,102137.44
2023-04-26T00:43:17.078Z,102139.31
2023-04-26T00:45:43.580Z,102143.75
2023-04-26T00:48:10.028Z,102129.06
2023-04-26T00:50:36.445Z,102130.78
2023-04-26T00:53:03.788Z,102135.16
2023-04-26T00:55:30.269Z,102135.25
2023-04-26T00:57:56.687Z,102131.88
2023-04-26T01:00:23.187Z,102131.16
2023-04-26T01:02:49.796Z,102132.94
2023-04-26T01:05:16.551Z,102129.63
2023-04-26T01:07:43.369Z,102133.16
2023-04-26T01:10:10.372Z,102137.56
2023-04-26T01:12:38.426Z,102137.59
2023-04-26T01:15:06.250Z,102144.59
2023-04-26T01:17:32.712Z,102145.50
2023-04-26T01:19:59.179Z,102154.25
2023-04-26T01:22:25.554Z,102151.69
2023-04-26T01:24:54.885Z,102149.13
2023-04-26T01:27:21.315Z,102150.00
2023-04-26T01:29:47.738Z,102155.25
2023-04-26T01:32:14.203Z,102157.03
2023-04-26T01:34:40.515Z,102151.84
2023-04-26T01:37:07.694Z,102154.50
2023-04-26T01:39:34.898Z,102154.53
2023-04-26T01:42:02.852Z,102151.91
2023-04-26T01:44:29.189Z,102152.84
2023-04-26T01:46:55.986Z,102154.63
2023-04-26T01:49:22.518Z,102158.19
2023-04-26T01:51:48.920Z,102148.63
2023-04-26T01:54:15.655Z,102142.47
2023-04-26T01:56:42.138Z,102144.19
2023-04-26T01:59:08.481Z,102142.44
2023-04-26T02:01:35.060Z,102142.38
2023-04-26T02:04:01.534Z,102142.41
2023-04-26T02:06:27.915Z,102138.94
2023-04-26T02:08:54.442Z,102143.38
2023-04-26T02:11:21.175Z,102144.28
2023-04-26T02:13:47.664Z,102143.47
2023-04-26T02:16:16.470Z,102146.13
2023-04-26T02:18:42.919Z,102142.72
2023-04-26T02:21:11.566Z,102148.81
2023-04-26T02:23:38.150Z,102146.19
2023-04-26T02:26:04.982Z,102139.13
2023-04-26T02:28:31.607Z,102143.47
2023-04-26T02:30:58.479Z,102149.66
2023-04-26T02:33:25.066Z,102144.50
2023-04-26T02:35:51.497Z,102153.25
2023-04-26T02:38:17.899Z,102156.00
2023-04-26T02:40:44.223Z,102154.22
2023-04-26T02:43:10.797Z,102148.09
2023-04-26T02:45:43.706Z,102142.97
2023-04-26T02:48:10.115Z,102148.13
2023-04-26T02:50:36.592Z,102144.72
2023-04-26T02:53:03.612Z,102143.88
2023-04-26T02:55:29.959Z,102147.34
2023-04-26T02:57:56.387Z,102138.75
2023-04-26T03:00:23.557Z,102146.56
2023-04-26T03:02:50.038Z,102144.84
2023-04-26T03:05:16.487Z,102144.00
2023-04-26T03:07:42.899Z,102137.94
2023-04-26T03:10:09.854Z,102137.13
2023-04-26T03:12:36.258Z,102134.50
2023-04-26T03:15:04.237Z,102135.41
2023-04-26T03:17:30.650Z,102137.22
2023-04-26T03:19:57.204Z,102141.59
2023-04-26T03:22:23.561Z,102139.00
2023-04-26T03:24:49.977Z,102132.97
2023-04-26T03:27:16.634Z,102137.34
2023-04-26T03:29:44.233Z,102139.09
2023-04-26T03:32:11.032Z,102129.56
2023-04-26T03:34:37.517Z,102131.28
2023-04-26T03:37:03.898Z,102135.63
2023-04-26T03:39:30.206Z,102133.06
2023-04-26T03:41:56.574Z,102128.69
2023-04-26T03:44:22.884Z,102119.09
2023-04-26T03:46:49.269Z,102126.00
2023-04-26T03:49:15.652Z,102130.41
2023-04-26T03:51:42.176Z,102128.69
2023-04-26T03:54:08.545Z,102130.41
2023-04-26T03:56:34.941Z,102127.00
2023-04-26T03:59:01.379Z,102137.47
2023-04-26T04:01:28.426Z,102137.50
2023-04-26T04:03:54.914Z,102137.50
2023-04-26T04:06:21.835Z,102132.28
2023-04-26T04:08:48.549Z,102129.63
2023-04-26T04:11:16.669Z,102131.31
2023-04-26T04:13:43.257Z,102130.41
2023-04-26T04:16:10.342Z,102133.03
2023-04-26T04:18:36.937Z,102126.16
2023-04-26T04:21:03.467Z,102124.44
2023-04-26T04:23:29.886Z,102127.94
2023-04-26T04:25:56.340Z,102131.41
2023-04-26T04:28:23.216Z,102136.69
2023-04-26T04:30:50.057Z,102129.84
2023-04-26T04:33:17.832Z,102131.56
2023-04-26T04:35:45.072Z,102134.16
2023-04-26T04:38:11.453Z,102134.16
2023-04-26T04:40:37.860Z,102135.81
2023-04-26T04:43:04.253Z,102125.41
2023-04-26T04:45:30.644Z,102124.41
2023-04-26T04:47:57.195Z,102128.72
2023-04-26T04:50:24.137Z,102133.09
2023-04-26T04:52:50.616Z,102131.28
2023-04-26T04:55:16.936Z,102134.00
2023-04-26T04:57:43.394Z,102138.41
2023-04-26T05:00:10.749Z,102144.50
2023-04-26T05:02:37.659Z,102133.19
2023-04-26T05:05:05.400Z,102138.34
2023-04-26T05:07:32.738Z,102140.94
2023-04-26T05:10:00.016Z,102144.38
2023-04-26T05:12:26.831Z,102149.50
2023-04-26T05:14:53.289Z,102148.56
2023-04-26T05:17:19.995Z,102151.16
2023-04-26T05:19:47.155Z,102156.31
2023-04-26T05:22:18.253Z,102158.81
2023-04-26T05:24:48.310Z,102156.16
2023-04-26T05:27:14.765Z,102157.81
2023-04-26T05:29:41.625Z,102152.56
2023-04-26T05:32:08.116Z,102159.44
2023-04-26T05:34:34.650Z,102155.91
2023-04-26T05:37:01.161Z,102155.88
2023-04-26T05:39:27.537Z,102161.03
2023-04-26T05:41:53.933Z,102156.63
2023-04-26T05:44:20.320Z,102164.41
2023-04-26T05:46:47.332Z,102165.19
2023-04-26T05:49:13.681Z,102163.41
2023-04-26T05:51:40.116Z,102164.19
2023-04-26T05:54:06.518Z,102155.47
2023-04-26T05:56:32.959Z,102157.97
2023-04-26T05:58:59.317Z,102160.44
2023-04-26T06:01:25.919Z,102150.84
2023-04-26T06:03:54.208Z,102161.22
2023-04-26T06:06:22.603Z,102161.16
2023-04-26T06:08:48.951Z,102156.72
2023-04-26T06:11:15.317Z,102154.94
2023-04-26T06:13:41.797Z,102161.78
2023-04-26T06:16:08.216Z,102164.38
2023-04-26T06:18:34.618Z,102157.38
2023-04-26T06:21:01.042Z,102165.16
2023-04-26T06:23:27.380Z,102159.00
2023-04-26T06:25:53.758Z,102160.69
2023-04-26T06:28:20.152Z,102162.38
2023-04-26T06:30:46.579Z,102170.16
2023-04-26T06:33:13.031Z,102167.53
2023-04-26T06:35:42.186Z,102177.09
2023-04-26T06:38:09.099Z,102173.63
2023-04-26T06:40:37.139Z,102183.97
2023-04-26T06:43:03.525Z,102180.41
2023-04-26T06:45:30.729Z,102178.63
2023-04-26T06:47:57.777Z,102189.00
2023-04-26T06:50:24.199Z,102187.19
2023-04-26T06:52:51.443Z,102190.59
2023-04-26T06:55:18.835Z,102195.81
2023-04-26T06:57:45.236Z,102188.00
2023-04-26T07:00:12.801Z,102194.03
2023-04-26T07:02:39.206Z,102187.03
2023-04-26T07:05:06.281Z,102185.22
2023-04-26T07:07:32.878Z,102189.47
2023-04-26T07:09:59.224Z,102183.28
2023-04-26T07:12:25.665Z,102175.47
2023-04-26T07:14:52.026Z,102184.97
2023-04-26T07:17:18.437Z,102182.25
2023-04-26T07:19:44.858Z,102180.44
2023-04-26T07:22:12.054Z,102178.69
2023-04-26T07:24:38.393Z,102176.03
2023-04-26T07:27:04.769Z,102176.88
2023-04-26T07:29:31.262Z,102177.56
2023-04-26T07:31:58.810Z,102170.50
2023-04-26T07:34:25.374Z,102171.28
2023-04-26T07:36:51.828Z,102168.56
2023-04-26T07:39:18.240Z,102168.56
2023-04-26T07:41:44.660Z,102174.66
2023-04-26T07:44:11.376Z,102182.53
2023-04-26T07:46:37.785Z,102185.03
2023-04-26T07:49:04.186Z,102182.34
2023-04-26T07:51:30.621Z,102184.91
2023-04-26T07:53:57.094Z,102184.09
2023-04-26T07:56:24.309Z,102188.53
2023-04-26T07:58:50.783Z,102191.13
2023-04-26T08:01:17.270Z,102191.13
2023-04-26T08:03:43.783Z,102196.22
2023-04-26T08:06:10.702Z,102192.59
2023-04-26T08:08:44.671Z,102196.84
2023-04-26T08:11:11.696Z,102204.50
2023-04-26T08:13:38.191Z,102197.44
2023-04-26T08:16:05.220Z,102197.34
2023-04-26T08:18:31.676Z,102193.84
2023-04-26T08:20:58.391Z,102187.72
2023-04-26T08:23:24.936Z,102188.47
2023-04-26T08:25:51.464Z,102196.16
2023-04-26T08:28:17.867Z,102193.47
2023-04-26T08:30:44.363Z,102193.53
2023-04-26T08:33:11.033Z,102190.13
2023-04-26T08:35:37.390Z,102190.16
2023-04-26T08:38:03.955Z,102187.56
2023-04-26T08:40:30.782Z,102184.97
2023-04-26T08:42:57.320Z,102184.94
2023-04-26T08:45:24.764Z,102185.84
2023-04-26T08:47:53.551Z,102184.13
2023-04-26T08:50:22.065Z,102196.31
2023-04-26T08:52:51.418Z,102192.09
2023-04-26T08:55:20.033Z,102193.88
2023-04-26T08:57:48.053Z,102200.03
2023-04-26T09:00:16.120Z,102196.59
2023-04-26T09:02:47.236Z,102197.59
2023-04-26T09:05:14.364Z,102194.22
2023-04-26T09:07:44.140Z,102198.66
2023-04-26T09:10:12.344Z,102196.97
2023-04-26T09:12:39.002Z,102200.47
2023-04-26T09:15:09.901Z,102196.13
2023-04-26T09:17:38.924Z,102187.34
2023-04-26T09:20:21.215Z,102192.53
2023-04-26T09:22:49.133Z,102189.81
2023-04-26T09:25:17.817Z,102190.63
2023-04-26T09:27:44.747Z,102193.16
2023-04-26T09:30:17.522Z,102196.59
2023-04-26T09:33:03.973Z,102192.09
2023-04-26T09:35:38.754Z,102191.13
2023-04-26T09:38:15.102Z,102198.00
2023-04-26T09:40:43.851Z,102198.75
2023-04-26T09:43:16.746Z,102194.31
2023-04-26T09:45:51.083Z,102198.72
2023-04-26T09:48:33.207Z,102195.16
2023-04-26T09:51:09.364Z,102190.78
2023-04-26T09:53:46.423Z,102201.16
2023-04-26T09:56:14.002Z,102198.44
2023-04-26T09:58:46.345Z,102188.78
2023-04-26T10:01:16.083Z,102187.84
2023-04-26T10:03:43.966Z,102189.38
2023-04-26T10:06:12.579Z,102192.00
2023-04-26T10:08:39.259Z,102183.22
2023-04-26T10:11:07.637Z,102182.28
2023-04-26T10:13:34.973Z,102177.88
2023-04-26T10:16:02.180Z,102181.34
2023-04-26T10:18:29.255Z,102172.56
2023-04-26T10:20:59.943Z,102177.69
2023-04-26T10:23:27.300Z,102182.00
2023-04-26T10:25:55.031Z,102182.03
2023-04-26T10:28:43.979Z,102174.97
2023-04-26T10:31:10.508Z,102176.63
2023-04-26T10:33:37.175Z,102177.50
2023-04-26T10:36:08.053Z,102176.63
2023-04-26T10:38:36.618Z,102178.38
2023-04-26T10:41:30.158Z,102174.94
2023-04-26T10:43:57.060Z,102177.56
2023-04-26T10:46:40.592Z,102174.88
2023-04-26T10:49:14.858Z,102177.41
2023-04-26T10:51:41.653Z,102176.56
2023-04-26T10:54:08.105Z,102180.03
2023-04-26T10:56:41.041Z,102181.81
2023-04-26T10:59:28.357Z,102179.97
2023-04-26T11:01:55.775Z,102169.31
2023-04-26T11:04:22.355Z,102179.72
2023-04-26T11:06:55.686Z,102178.00
2023-04-26T11:09:42.387Z,102174.38
2023-04-26T11:12:14.024Z,102172.50
2023-04-26T11:14:45.599Z,102176.78
2023-04-26T11:17:13.180Z,102167.28
2023-04-26T11:19:41.682Z,102162.91
2023-04-26T11:22:08.430Z,102161.03
2023-04-26T11:24:41.592Z,102159.09
2023-04-26T11:27:11.962Z,102152.78
2023-04-26T11:29:38.904Z,102154.47
2023-04-26T11:32:05.677Z,102147.47
2023-04-26T11:34:36.451Z,102158.78
2023-04-26T11:37:04.819Z,102147.47
2023-04-26T11:39:32.691Z,102149.03
2023-04-26T11:42:10.133Z,102150.28
2023-04-26T11:44:37.607Z,102147.13
2023-04-26T11:47:05.664Z,102147.69
2023-04-26T11:49:33.406Z,102145.09
2023-04-26T11:52:00.301Z,102143.19
2023-04-26T11:54:30.874Z,102139.22
2023-04-26T11:56:58.604Z,102144.00
2023-04-26T11:59:29.711Z,102143.31
2023-04-26T12:01:57.556Z,102136.91
2023-04-26T12:04:30.989Z,102141.84
2023-04-26T12:06:58.189Z,102140.06
2023-04-26T12:09:29.479Z,102139.47
2023-04-26T12:11:59.991Z,102146.75
2023-04-26T12:14:36.711Z,102142.69
2023-04-26T12:17:04.530Z,102143.91
2023-04-26T12:19:37.320Z,102150.31
2023-04-26T12:22:04.530Z,102148.69
2023-04-26T12:24:36.973Z,102154.94
2023-04-26T12:27:06.002Z,102157.59
2023-04-26T12:29:32.932Z,102165.53
2023-04-26T12:31:59.869Z,102158.63
2023-04-26T12:34:26.310Z,102162.97
2023-04-26T12:36:53.022Z,102162.97
2023-04-26T12:39:19.413Z,102167.38
2023-04-26T12:41:46.505Z,102172.59
2023-04-26T12:44:14.263Z,102170.03
2023-04-26T12:46:40.790Z,102165.75
2023-04-26T12:49:07.513Z,102166.50
2023-04-26T12:51:33.913Z,102160.41
2023-04-26T12:54:00.293Z,102167.38
2023-04-26T12:56:26.836Z,102152.41
2023-04-26T12:58:53.323Z,102154.88
2023-04-26T13:01:19.817Z,102154.72
2023-04-26T13:03:46.486Z,102152.19
2023-04-26T13:06:13.112Z,102161.84
2023-04-26T13:08:39.598Z,102161.06
2023-04-26T13:11:05.928Z,102156.66
2023-04-26T13:13:43.004Z,102153.19
2023-04-26T13:16:10.688Z,102162.78
2023-04-26T13:18:37.047Z,102167.09
2023-04-26T13:21:03.544Z,102161.94
2023-04-26T13:23:29.944Z,102159.34
2023-04-26T13:25:56.405Z,102162.66
2023-04-26T13:28:22.780Z,102163.56
2023-04-26T13:30:49.183Z,102160.06
2023-04-26T13:33:15.740Z,102161.00
2023-04-26T13:35:42.225Z,102168.81
2023-04-26T13:38:08.630Z,102167.19
2023-04-26T13:40:37.050Z,102172.50
2023-04-26T13:43:03.922Z,102169.97
2023-04-26T13:45:30.469Z,102172.59
2023-04-26T13:47:56.920Z,102180.47
2023-04-26T13:50:23.396Z,102178.78
2023-04-26T13:52:52.064Z,102183.94
2023-04-26T13:55:18.698Z,102179.56
2023-04-26T13:57:45.063Z,102176.91
2023-04-26T14:00:12.274Z,102182.31
2023-04-26T14:02:38.838Z,102174.31
2023-04-26T14:05:05.925Z,102177.66
2023-04-26T14:07:32.299Z,102166.19
2023-04-26T14:09:58.660Z,102171.28
2023-04-26T14:12:25.060Z,102162.41
2023-04-26T14:14:51.668Z,102163.13
2023-04-26T14:17:18.029Z,102164.75
2023-04-26T14:19:44.442Z,102162.97
2023-04-26T14:22:12.809Z,102161.34
2023-04-26T14:24:39.308Z,102155.16
2023-04-26T14:27:05.891Z,102161.22
2023-04-26T14:29:32.342Z,102163.75
2023-04-26T14:31:58.833Z,102158.44
2023-04-26T14:34:26.302Z,102153.97
2023-04-26T14:36:52.630Z,102154.75
2023-04-26T14:39:19.004Z,102156.41
2023-04-26T14:41:45.319Z,102158.31
2023-04-26T14:44:11.773Z,102158.50
2023-04-26T14:46:38.284Z,102148.00
2023-04-26T14:49:04.666Z,102153.19
2023-04-26T14:51:32.533Z,102160.16
2023-04-26T14:53:59.390Z,102158.25
2023-04-26T14:56:25.804Z,102146.81
2023-04-26T14:58:52.180Z,102143.22
2023-04-26T15:01:18.593Z,102148.47
2023-04-26T15:03:45.177Z,102141.59
2023-04-26T15:06:11.786Z,102147.66
2023-04-26T15:08:38.169Z,102149.31
2023-04-26T15:11:04.612Z,102146.88
2023-04-26T15:13:31.001Z,102144.25
2023-04-26T15:15:57.334Z,102146.81
2023-04-26T15:18:23.720Z,102144.25
2023-04-26T15:20:50.128Z,102154.66
2023-04-26T15:23:16.805Z,102151.13
2023-04-26T15:25:43.433Z,102151.09
2023-04-26T15:28:09.821Z,102145.84
2023-04-26T15:30:36.396Z,102143.22
2023-04-26T15:33:03.087Z,102146.63
2023-04-26T15:35:29.605Z,102139.59
2023-04-26T15:37:56.065Z,102145.69
2023-04-26T15:40:22.513Z,102140.38
2023-04-26T15:42:49.205Z,102135.19
2023-04-26T15:45:15.656Z,102145.66
2023-04-26T15:47:42.236Z,102139.69
2023-04-26T15:50:09.094Z,102143.13
2023-04-26T15:52:38.532Z,102146.63
2023-04-26T15:55:07.180Z,102147.50
2023-04-26T15:57:34.619Z,102150.16
2023-04-26T16:00:01.718Z,102147.50
2023-04-26T16:02:28.331Z,102140.59
2023-04-26T16:04:55.075Z,102141.50
2023-04-26T16:07:21.593Z,102147.59
2023-04-26T16:09:47.985Z,102144.03
2023-04-26T16:12:14.375Z,102153.53
2023-04-26T16:14:41.052Z,102149.97
2023-04-26T16:17:07.547Z,102150.03
2023-04-26T16:19:33.914Z,102149.13
2023-04-26T16:22:00.527Z,102156.94
2023-04-26T16:24:27.000Z,102150.84
2023-04-26T16:26:53.370Z,102146.56
2023-04-26T16:29:19.787Z,102150.94
2023-04-26T16:31:46.304Z,102151.88
2023-04-26T16:34:12.693Z,102155.47
2023-04-26T16:36:39.013Z,102153.91
2023-04-26T16:39:06.054Z,102146.94
2023-04-26T16:41:32.527Z,102151.28
2023-04-26T16:43:58.939Z,102153.00
2023-04-26T16:46:25.359Z,102141.59
2023-04-26T16:48:51.820Z,102150.28
2023-04-26T16:51:18.288Z,102150.38
2023-04-26T16:53:44.600Z,102146.03
2023-04-26T16:56:11.009Z,102151.28
2023-04-26T16:58:37.493Z,102152.19
2023-04-26T17:01:04.640Z,102152.06
2023-04-26T17:03:31.382Z,102155.50
2023-04-26T17:05:58.206Z,102152.06
2023-04-26T17:08:24.560Z,102156.56
2023-04-26T17:10:51.897Z,102151.34
2023-04-26T17:13:18.898Z,102144.31
2023-04-26T17:15:46.091Z,102151.22
2023-04-26T17:18:12.732Z,102160.88
2023-04-26T17:20:39.280Z,102160.88
2023-04-26T17:23:05.804Z,102159.03
2023-04-26T17:25:32.228Z,102160.81
2023-04-26T17:27:58.923Z,102160.00
2023-04-26T17:30:25.544Z,102163.50
2023-04-26T17:32:51.993Z,102164.38
2023-04-26T17:35:18.437Z,102170.47
2023-04-26T17:37:49.776Z,102166.19
2023-04-26T17:40:17.234Z,102168.00
2023-04-26T17:42:43.907Z,102173.34
2023-04-26T17:45:13.615Z,102172.56
2023-04-26T17:47:41.389Z,102167.47
2023-04-26T17:50:08.650Z,102171.91
2023-04-26T17:52:35.367Z,102176.25
2023-04-26T17:55:01.884Z,102178.91
2023-04-26T17:57:28.320Z,102187.63
2023-04-26T17:59:54.779Z,102185.91
2023-04-26T18:02:21.313Z,102194.69
2023-04-26T18:04:48.057Z,102182.56
2023-04-26T18:07:15.117Z,102192.13
2023-04-26T18:09:41.805Z,102193.88
2023-04-26T18:12:08.291Z,102198.22
2023-04-26T18:14:34.698Z,102197.44
2023-04-26T18:17:01.181Z,102195.72
2023-04-26T18:19:27.570Z,102196.63
2023-04-26T18:21:54.054Z,102201.06
2023-04-26T18:24:20.428Z,102203.69
2023-04-26T18:26:46.764Z,102202.88
2023-04-26T18:29:13.149Z,102207.22
2023-04-26T18:31:39.589Z,102207.28
2023-04-26T18:34:06.824Z,102209.91
2023-04-26T18:36:33.239Z,102208.22
2023-04-26T18:39:00.970Z,102210.06
2023-04-26T18:41:27.684Z,102209.28
2023-04-26T18:43:54.510Z,102214.50
2023-04-26T18:46:21.375Z,102205.75
2023-04-26T18:48:47.860Z,102215.31
2023-04-26T18:51:14.410Z,102212.78
2023-04-26T18:53:40.900Z,102214.59
2023-04-26T18:56:07.323Z,102214.69
2023-04-26T18:58:34.328Z,102206.00
2023-04-26T19:01:01.011Z,102218.19
2023-04-26T19:03:27.526Z,102223.38
2023-04-26T19:05:54.097Z,102212.00
2023-04-26T19:08:20.909Z,102214.69
2023-04-26T19:10:47.260Z,102219.03
2023-04-26T19:13:13.577Z,102213.84
2023-04-26T19:15:40.115Z,102217.34
2023-04-26T19:18:06.514Z,102216.53
2023-04-26T19:20:32.868Z,102223.53
2023-04-26T19:22:59.274Z,102225.28
2023-04-26T19:25:26.650Z,102229.66
2023-04-26T19:27:52.991Z,102229.78
2023-04-26T19:30:19.459Z,102228.84
2023-04-26T19:32:45.847Z,102234.13
2023-04-26T19:35:12.272Z,102240.25
2023-04-26T19:37:38.681Z,102234.22
2023-04-26T19:40:10.044Z,102237.84
2023-04-26T19:42:36.514Z,102237.91
2023-04-26T19:45:03.015Z,102245.81
2023-04-26T19:47:29.476Z,102251.03
2023-04-26T19:49:57.583Z,102249.41
2023-04-26T19:52:23.985Z,102246.94
2023-04-26T19:54:53.841Z,102248.91
2023-04-26T19:57:21.149Z,102250.81
2023-04-26T19:59:47.905Z,102245.63
2023-04-26T20:02:14.430Z,102245.72
2023-04-26T20:04:41.073Z,102248.50
2023-04-26T20:07:07.473Z,102247.75
2023-04-26T20:09:34.602Z,102246.97
2023-04-26T20:12:01.007Z,102255.75
2023-04-26T20:14:30.018Z,102254.09
2023-04-26T20:16:56.527Z,102262.00
2023-04-26T20:19:23.386Z,102265.50
2023-04-26T20:21:49.781Z,102263.09
2023-04-26T20:24:16.316Z,102258.88
2023-04-26T20:26:42.792Z,102258.88
2023-04-26T20:29:09.415Z,102265.88
2023-04-26T20:31:36.156Z,102257.22
2023-04-26T20:34:02.632Z,102257.28
2023-04-26T20:36:29.029Z,102266.09
2023-04-26T20:38:55.831Z,102267.03
2023-04-26T20:41:22.212Z,102261.91
2023-04-26T20:43:49.157Z,102269.78
2023-04-26T20:46:16.187Z,102270.72
2023-04-26T20:48:42.538Z,102274.25
2023-04-26T20:51:08.963Z,102268.16
2023-04-26T20:53:35.304Z,102269.97
2023-04-26T20:56:01.689Z,102270.88
2023-04-26T20:58:29.678Z,102263.09
2023-04-26T21:00:56.076Z,102268.41
2023-04-26T21:03:22.774Z,102274.56
2023-04-26T21:05:49.412Z,102267.66
2023-04-26T21:08:15.848Z,102265.06
2023-04-26T21:10:42.166Z,102266.88
2023-04-26T21:13:08.582Z,102266.94
2023-04-26T21:15:35.057Z,102269.63
2023-04-26T21:18:01.779Z,102273.13
2023-04-26T21:20:28.250Z,102271.44
2023-04-26T21:22:54.611Z,102267.13
2023-04-26T21:25:21.639Z,102275.06
2023-04-26T21:27:48.673Z,102271.69
2023-04-26T21:30:15.326Z,102280.44
2023-04-26T21:32:41.821Z,102277.91
2023-04-26T21:35:08.669Z,102275.34
2023-04-26T21:37:35.015Z,102272.72
2023-04-26T21:40:01.433Z,102271.91
2023-04-26T21:42:27.853Z,102272.81
2023-04-26T21:44:54.281Z,102279.78
2023-04-26T21:47:20.724Z,102276.38
2023-04-26T21:49:47.166Z,102290.38
2023-04-26T21:52:13.585Z,102280.06
2023-04-26T21:54:40.039Z,102283.56
2023-04-26T21:57:06.905Z,102275.75
2023-04-26T21:59:33.830Z,102276.66
2023-04-26T22:02:01.083Z,102282.81
2023-04-26T22:04:27.813Z,102282.88
2023-04-26T22:06:54.412Z,102282.09
2023-04-26T22:09:21.462Z,102275.16
2023-04-26T22:11:47.772Z,102278.69
2023-04-26T22:14:14.146Z,102277.91
2023-04-26T22:16:40.646Z,102282.22
2023-04-26T22:19:07.097Z,102286.63
2023-04-26T22:21:33.508Z,102287.56
2023-04-26T22:24:00.126Z,102290.16
2023-04-26T22:26:26.751Z,102291.94
2023-04-26T22:28:53.113Z,102285.84
2023-04-26T22:31:19.558Z,102284.13
2023-04-26T22:33:46.251Z,102285.91
2023-04-26T22:36:12.910Z,102283.38
2023-04-26T22:38:39.738Z,102282.53
2023-04-26T22:41:07.225Z,102294.81
2023-04-26T22:43:34.414Z,102298.41
2023-04-26T22:46:01.060Z,102300.19
2023-04-26T22:48:27.406Z,102289.78
2023-04-26T22:50:53.849Z,102295.00
2023-04-26T22:53:20.242Z,102298.50
2023-04-26T22:55:46.593Z,102311.53
2023-04-26T22:58:13.099Z,102308.09
2023-04-26T23:00:39.478Z,102311.56
2023-04-26T23:03:06.159Z,102303.84
2023-04-26T23:05:32.634Z,102303.88
2023-04-26T23:07:59.004Z,102301.31
2023-04-26T23:10:25.435Z,102310.91
2023-04-26T23:12:51.862Z,102309.19
2023-04-26T23:15:18.612Z,102314.47
2023-04-26T23:17:45.497Z,102321.53
2023-04-26T23:20:12.344Z,102318.09
2023-04-26T23:22:40.154Z,102319.81
2023-04-26T23:25:07.202Z,102314.56
2023-04-26T23:27:33.676Z,102325.88
2023-04-26T23:30:00.126Z,102329.41
2023-04-26T23:32:26.554Z,102332.13
2023-04-26T23:34:52.897Z,102328.66
2023-04-26T23:37:19.347Z,102333.00
2023-04-26T23:39:45.828Z,102329.56
2023-04-26T23:42:12.774Z,102323.47
2023-04-26T23:44:39.115Z,102321.75
2023-04-26T23:47:05.652Z,102329.66
2023-04-26T23:49:32.041Z,102321.00
2023-04-26T23:51:58.360Z,102336.69
2023-04-26T23:54:24.782Z,102341.13
2023-04-26T23:56:51.161Z,102341.13
2023-04-26T23:59:17.527Z,102345.50
